Terminal Aerodrome Forecast
Issued by NWS Cleveland, OH

Home | Current Version | Previous Version | Graphics & Text | Print | Product List | Glossary On
Versions: 1 2 3 4 5 6 7 8 9 10 11 12 13 14 15 16 17 18 19 20
000
FTUS41 KCLE 171934 AAA
TAFMFD
TAF AMD
KMFD 171934Z 1720/1818 18008KT P6SM BKN025 OVC080
     FM172100 20009KT 5SM -SN OVC018
      TEMPO 1722/1724 2SM -SHSN OVC008
     FM180300 21008KT P6SM OVC015
     FM180800 27010KT P6SM BKN020
     FM181200 27006KT P6SM BKN040
     FM181700 19007KT P6SM SCT140=

USA.gov is the U.S. government's official web portal to all federal, state and local government web resources and services.